Time;durP1;ratioP1;P1;durP2;ratioP2;P2;SDS_P1;SDS_P2;PMS_P1;PMS_P2;Temp;Humidity;BMP_temperature;BMP_pressure;BME280_temperature;BME280_humidity;BME280_pressure;Samples;Min_cycle;Max_cycle;Signal;HPM_P1;HPM_P2
2022/08/12 00:44:56;;;;;;;3.45;2.10;;;;;;;17.25;50.18;98462.28;4915152;29;20054;-74
2022/08/12 00:47:22;;;;;;;3.88;1.90;;;;;;;17.30;50.58;98460.66;4920767;29;20060;-74
2022/08/12 00:49:53;;;;;;;6.03;2.40;;;;;;;17.31;49.79;98453.44;4921224;29;20146;-74
2022/08/12 00:52:20;;;;;;;2.95;2.20;;;;;;;17.29;49.71;98458.97;4924462;29;20051;-74
2022/08/12 00:54:50;;;;;;;2.58;2.20;;;;;;;17.31;49.56;98459.63;4918272;29;20040;-74
2022/08/12 00:57:25;;;;;;;3.55;2.28;;;;;;;17.30;49.77;98457.97;4929107;29;20055;-74
2022/08/12 00:59:59;;;;;;;8.63;2.28;;;;;;;17.26;50.49;98459.38;4925476;29;20067;-74
2022/08/12 01:02:32;;;;;;;4.03;2.20;;;;;;;17.22;49.63;98459.97;4924223;29;20047;-74
2022/08/12 01:13:24;;;;;;;2.75;1.90;;;;;;;16.88;53.05;98464.28;4930067;29;20055;-74
2022/08/12 01:15:56;;;;;;;2.63;2.00;;;;;;;16.90;53.07;98462.22;4928651;29;20046;-74
2022/08/12 01:18:26;;;;;;;2.58;2.00;;;;;;;16.86;52.56;98464.47;4916607;29;20055;-74
2022/08/12 01:21:02;;;;;;;2.70;2.47;;;;;;;16.83;53.05;98469.38;4915802;29;20063;-74
2022/08/12 01:23:48;;;;;;;3.83;2.20;;;;;;;16.76;52.39;98460.44;4915982;29;20418;-73
2022/08/12 01:26:19;;;;;;;3.15;2.10;;;;;;;16.72;52.66;98464.50;4928519;29;20047;-74
2022/08/12 01:28:49;;;;;;;3.75;2.40;;;;;;;16.62;51.99;98460.31;4927097;29;20070;-74
2022/08/12 01:31:18;;;;;;;5.10;2.17;;;;;;;16.55;53.76;98470.13;4923376;29;20048;-73
2022/08/12 01:33:54;;;;;;;2.95;2.42;;;;;;;16.50;53.25;98466.38;4917620;29;20047;-74
2022/08/12 01:36:21;;;;;;;13.93;2.30;;;;;;;16.62;53.14;98464.84;4920512;29;20047;-74
2022/08/12 01:38:49;;;;;;;4.85;2.25;;;;;;;16.66;52.32;98474.94;4917446;29;20055;-74
2022/08/12 01:41:17;;;;;;;6.38;2.53;;;;;;;16.60;53.11;98464.22;4922300;29;20062;-74
2022/08/12 01:43:44;;;;;;;3.38;2.40;;;;;;;16.64;52.68;98460.13;4917582;29;20075;-74
2022/08/12 01:46:37;;;;;;;5.25;2.25;;;;;;;16.65;53.81;98457.28;4918758;29;20058;-74
2022/08/12 01:49:16;;;;;;;2.47;2.13;;;;;;;16.63;53.30;98448.63;4896839;28;20085;-74
2022/08/12 01:51:55;;;;;;;3.55;2.15;;;;;;;16.68;52.84;98442.69;4918438;29;20132;-75
2022/08/12 01:54:43;;;;;;;2.53;2.33;;;;;;;16.65;53.08;98435.91;4918237;29;20542;-75
2022/08/12 01:57:25;;;;;;;2.47;2.28;;;;;;;16.62;53.53;98436.28;4912378;29;20103;-75
2022/08/12 02:00:15;;;;;;;3.60;2.10;;;;;;;16.58;53.10;98431.53;4919908;29;20047;-74
2022/08/12 02:03:12;;;;;;;3.10;2.40;;;;;;;16.52;53.27;98440.31;4927054;29;20048;-74
2022/08/12 02:12:12;;;;;;;6.88;2.08;;;;;;;16.46;53.64;98441.91;4921531;29;20057;-74
2022/08/12 02:14:45;;;;;;;3.80;2.03;;;;;;;16.39;54.78;98447.16;4931368;28;20040;-74
2022/08/12 02:17:40;;;;;;;4.57;2.65;;;;;;;16.40;54.33;98445.31;4927855;29;20050;-74
2022/08/12 02:20:37;;;;;;;3.95;2.38;;;;;;;16.40;53.86;98446.16;4921833;29;20039;-74
2022/08/12 02:23:24;;;;;;;4.00;2.33;;;;;;;16.45;54.67;98441.06;4915048;29;20440;-74
2022/08/12 02:25:53;;;;;;;2.55;2.35;;;;;;;16.45;54.08;98441.06;4918613;29;20044;-74
2022/08/12 02:28:20;;;;;;;3.80;2.35;;;;;;;16.48;54.32;98437.19;4924521;29;20170;-74
2022/08/12 02:30:47;;;;;;;3.33;2.47;;;;;;;16.54;53.20;98441.78;4921235;29;20048;-74
2022/08/12 02:33:16;;;;;;;6.28;2.20;;;;;;;16.60;53.35;98441.00;4921953;29;20431;-75
2022/08/12 02:35:43;;;;;;;4.03;2.53;;;;;;;16.64;53.67;98446.75;4916046;29;20056;-74
2022/08/12 02:38:11;;;;;;;2.80;2.50;;;;;;;16.65;53.48;98443.09;4920203;29;20056;-74
2022/08/12 02:40:40;;;;;;;5.18;3.00;;;;;;;16.64;54.22;98430.72;4924359;29;20130;-74
2022/08/12 02:43:26;;;;;;;3.15;2.90;;;;;;;16.66;54.39;98434.03;4921013;29;20056;-74
2022/08/12 02:46:00;;;;;;;2.83;2.53;;;;;;;16.66;54.53;98436.72;4927233;29;20055;-74
2022/08/12 02:48:40;;;;;;;2.75;2.40;;;;;;;16.64;54.60;98436.06;4938586;29;20044;-74
2022/08/12 02:51:09;;;;;;;3.80;2.85;;;;;;;16.62;55.04;98432.81;4923101;29;20043;-74
2022/08/12 02:53:36;;;;;;;4.70;2.25;;;;;;;16.60;53.96;98435.66;4928910;29;20060;-74
2022/08/12 02:56:04;;;;;;;6.43;2.45;;;;;;;16.60;53.86;98422.28;4928245;29;20066;-74
2022/08/12 02:58:34;;;;;;;4.20;2.47;;;;;;;16.61;54.48;98433.81;4921213;29;20052;-74
2022/08/12 03:01:03;;;;;;;2.80;2.38;;;;;;;16.63;54.06;98429.09;4918967;29;20071;-74
2022/08/12 03:03:33;;;;;;;2.72;2.53;;;;;;;16.62;53.50;98428.28;4918729;29;20091;-74
2022/08/12 03:06:15;;;;;;;2.22;2.10;;;;;;;16.56;53.73;98429.06;4930920;29;20039;-74
2022/08/12 03:08:42;;;;;;;3.13;2.25;;;;;;;16.47;53.81;98424.84;4956608;28;20040;-75
2022/08/12 03:11:30;;;;;;;3.20;2.50;;;;;;;16.44;53.86;98430.59;4916787;29;20111;-75
2022/08/12 03:14:01;;;;;;;2.88;2.00;;;;;;;16.40;53.90;98434.63;4912685;29;20048;-74
2022/08/12 03:16:31;;;;;;;2.78;2.55;;;;;;;16.35;54.42;98421.03;4916390;29;20048;-74
2022/08/12 03:18:59;;;;;;;2.50;2.30;;;;;;;16.30;55.82;98428.78;4919543;29;20055;-74
2022/08/12 03:21:26;;;;;;;2.80;2.50;;;;;;;16.24;56.16;98433.06;4924546;29;20063;-74
2022/08/12 03:24:16;;;;;;;4.13;2.70;;;;;;;16.21;55.57;98433.44;4919683;29;20525;-73
2022/08/12 03:26:44;;;;;;;3.13;2.35;;;;;;;16.16;54.95;98434.00;4916996;29;20044;-73
2022/08/12 03:29:11;;;;;;;3.92;2.53;;;;;;;16.12;55.12;98431.94;4921705;29;20054;-73
2022/08/12 03:31:38;;;;;;;2.60;2.40;;;;;;;16.03;55.18;98428.53;4923591;29;20559;-74
2022/08/12 03:34:07;;;;;;;4.65;2.47;;;;;;;15.94;55.84;98422.50;4922080;29;20123;-74
2022/08/12 03:36:35;;;;;;;3.40;3.08;;;;;;;15.88;56.02;98433.09;4921042;29;20044;-74
2022/08/12 03:41:54;;;;;;;4.97;2.50;;;;;;;15.73;56.27;98431.28;4920134;29;20134;-74
2022/08/12 04:01:24;;;;;;;5.03;3.00;;;;;;;15.35;57.81;98436.75;4921657;29;20407;-74
2022/08/12 04:03:51;;;;;;;5.28;3.30;;;;;;;15.19;58.94;98442.22;4926264;29;22507;-74
2022/08/12 04:06:28;;;;;;;3.72;2.95;;;;;;;15.08;59.41;98440.84;4919767;29;20044;-74
2022/08/12 04:09:04;;;;;;;6.68;3.00;;;;;;;14.99;59.71;98435.81;4923879;29;20048;-74
2022/08/12 04:14:27;;;;;;;6.47;3.08;;;;;;;15.14;58.90;98434.81;4919468;29;20044;-74
2022/08/12 04:16:55;;;;;;;6.60;3.42;;;;;;;15.14;59.36;98428.66;4921580;29;20051;-74
2022/08/12 04:19:23;;;;;;;4.60;2.60;;;;;;;15.19;58.73;98434.25;4918000;29;20074;-74
2022/08/12 04:21:50;;;;;;;3.30;2.92;;;;;;;15.25;57.93;98427.38;4918156;29;20063;-74
2022/08/12 04:24:35;;;;;;;7.20;2.85;;;;;;;15.29;59.14;98439.31;4915275;29;20060;-74
2022/08/12 04:27:08;;;;;;;5.20;2.97;;;;;;;15.34;59.18;98435.06;4919431;29;20055;-74
2022/08/12 04:29:36;;;;;;;5.10;3.30;;;;;;;15.35;58.84;98430.59;4925457;29;20051;-74
2022/08/12 04:32:24;;;;;;;3.42;2.60;;;;;;;15.29;59.87;98437.47;4919873;29;20044;-74
2022/08/12 04:34:50;;;;;;;3.92;3.53;;;;;;;15.27;59.40;98438.66;4924835;29;20107;-74
2022/08/12 04:37:17;;;;;;;4.50;2.83;;;;;;;15.32;59.52;98439.78;4922535;29;20044;-74
2022/08/12 04:39:44;;;;;;;5.40;2.88;;;;;;;15.48;58.83;98438.75;4919448;29;20054;-74
2022/08/12 04:42:11;;;;;;;5.18;3.00;;;;;;;15.61;57.62;98439.91;4921029;29;20117;-75
2022/08/12 04:44:38;;;;;;;5.60;3.00;;;;;;;15.70;57.11;98438.84;4930621;29;20055;-74
2022/08/12 04:47:06;;;;;;;7.82;3.03;;;;;;;15.80;57.23;98447.38;4924513;29;20043;-74
2022/08/12 04:49:33;;;;;;;4.65;2.85;;;;;;;15.89;56.89;98443.56;4923498;29;20048;-74
2022/08/12 04:52:01;;;;;;;6.57;2.80;;;;;;;15.95;57.05;98442.00;4922628;29;20462;-74
2022/08/12 04:54:28;;;;;;;9.63;3.17;;;;;;;15.95;57.03;98442.81;4919935;29;20170;-74
2022/08/12 04:56:56;;;;;;;3.42;3.05;;;;;;;15.98;58.30;98446.94;4911053;29;20040;-74
2022/08/12 04:59:31;;;;;;;3.65;2.42;;;;;;;15.98;58.03;98452.28;4917570;29;20400;-74
2022/08/12 05:02:16;;;;;;;3.28;2.63;;;;;;;15.96;57.75;98454.34;4919295;29;20704;-74
2022/08/12 05:04:52;;;;;;;3.67;3.00;;;;;;;15.96;58.96;98443.66;4923571;29;20044;-74
2022/08/12 05:07:19;;;;;;;4.90;2.97;;;;;;;15.98;57.70;98449.63;4918538;29;20046;-75
2022/08/12 05:09:46;;;;;;;4.03;2.92;;;;;;;16.01;58.56;98451.94;4915104;29;20134;-75
2022/08/12 05:12:35;;;;;;;4.40;3.38;;;;;;;16.01;57.94;98447.41;4911242;29;20107;-74
2022/08/12 05:15:04;;;;;;;5.50;3.40;;;;;;;16.00;59.11;98451.09;4918409;29;20067;-74
2022/08/12 05:17:50;;;;;;;5.78;3.47;;;;;;;16.12;59.74;98448.75;4920050;29;20048;-74
2022/08/12 05:20:19;;;;;;;5.82;3.60;;;;;;;16.18;59.05;98448.00;4913712;29;20079;-74
2022/08/12 05:22:46;;;;;;;3.40;2.80;;;;;;;16.15;57.81;98453.72;4922408;29;20047;-74
2022/08/12 05:25:14;;;;;;;4.10;2.60;;;;;;;16.14;59.42;98449.41;4923703;29;20494;-74
2022/08/12 05:27:44;;;;;;;3.78;3.00;;;;;;;16.18;58.52;98453.34;4921061;29;20054;-74
2022/08/12 05:30:29;;;;;;;5.30;3.03;;;;;;;16.16;56.56;98458.03;4917584;29;20514;-74
2022/08/12 05:32:57;;;;;;;5.53;2.92;;;;;;;16.19;56.40;98460.34;4922239;29;20503;-74
2022/08/12 05:35:26;;;;;;;5.35;3.10;;;;;;;16.23;56.28;98464.25;4913069;29;20044;-74
2022/08/12 05:38:55;;;;;;;10.40;3.55;;;;;;;16.32;57.24;98464.13;4925866;29;20052;-74
2022/08/12 05:40:40;;;;;;;8.80;3.20;;;;;;;16.41;56.74;98471.84;4924247;29;20051;-74
2022/08/12 05:43:07;;;;;;;7.22;3.33;;;;;;;16.50;56.12;98472.53;4916467;29;20131;-74
2022/08/12 05:45:34;;;;;;;5.18;3.05;;;;;;;16.57;55.79;98470.75;4914548;29;20115;-74
2022/08/12 05:48:01;;;;;;;4.70;2.88;;;;;;;16.66;55.37;98472.25;4922178;29;20135;-74
2022/08/12 05:50:28;;;;;;;4.75;2.72;;;;;;;16.74;55.76;98478.50;4916189;29;20044;-75
2022/08/12 05:52:55;;;;;;;4.80;2.90;;;;;;;16.85;55.62;98484.19;4925577;29;20409;-74
2022/08/12 05:55:22;;;;;;;3.65;3.35;;;;;;;17.00;55.56;98489.44;4919732;29;20148;-74
2022/08/12 05:57:56;;;;;;;2.75;2.50;;;;;;;17.10;56.76;98491.78;4923415;29;20102;-74
2022/08/12 06:00:28;;;;;;;2.95;2.65;;;;;;;17.18;55.44;98480.09;4917741;29;20047;-74
2022/08/12 06:02:59;;;;;;;4.95;2.70;;;;;;;17.24;55.52;98487.34;4917680;29;20067;-74
2022/08/12 06:05:35;;;;;;;3.75;2.92;;;;;;;17.36;57.48;98482.28;4916970;29;20056;-74
2022/08/12 06:08:21;;;;;;;3.03;2.22;;;;;;;17.54;57.40;98486.09;4917090;29;20063;-74
2022/08/12 06:10:50;;;;;;;3.33;2.75;;;;;;;17.54;57.52;98486.09;4925387;29;20521;-74
2022/08/12 06:13:17;;;;;;;3.85;3.22;;;;;;;17.64;56.80;98482.22;4919676;29;20058;-74
2022/08/12 06:16:06;;;;;;;4.80;2.92;;;;;;;17.70;56.03;98490.28;4929996;29;20043;-74
2022/08/12 06:18:33;;;;;;;5.32;2.50;;;;;;;17.78;56.84;98487.44;4922632;29;20775;-74
2022/08/12 06:21:00;;;;;;;7.28;3.20;;;;;;;17.89;56.33;98488.75;4924381;29;20048;-74
2022/08/12 06:23:28;;;;;;;4.63;3.00;;;;;;;17.89;56.49;98488.75;4919719;29;20401;-74
2022/08/12 06:25:55;;;;;;;4.28;3.10;;;;;;;18.13;51.92;98491.91;4924624;29;20040;-74
2022/08/12 06:28:22;;;;;;;5.22;3.00;;;;;;;18.25;51.42;98495.66;4924677;29;20036;-74
2022/08/12 06:30:50;;;;;;;3.78;2.85;;;;;;;18.42;52.49;98496.94;4925767;29;20410;-74
2022/08/12 06:33:36;;;;;;;2.78;2.58;;;;;;;18.69;50.25;98494.28;4923211;29;20416;-74
2022/08/12 06:36:24;;;;;;;2.90;2.60;;;;;;;18.75;52.72;98496.19;4919182;29;20058;-74
2022/08/12 06:38:58;;;;;;;7.00;2.72;;;;;;;18.82;50.13;98494.31;4919218;29;20051;-74
2022/08/12 06:44:31;;;;;;;5.60;2.25;;;;;;;19.12;51.59;98487.75;4934863;28;20047;-74
2022/08/12 06:46:58;;;;;;;3.40;2.47;;;;;;;19.02;53.00;98486.28;4930780;29;20119;-73
2022/08/12 06:49:24;;;;;;;4.15;2.45;;;;;;;19.14;52.00;98491.88;4926224;29;20055;-73
2022/08/12 06:51:54;;;;;;;6.35;2.75;;;;;;;19.16;50.71;98495.16;4919983;29;20392;-74
2022/08/12 06:54:24;;;;;;;5.35;3.35;;;;;;;19.17;49.23;98487.91;4920411;29;20087;-74
2022/08/12 06:57:00;;;;;;;2.35;2.15;;;;;;;19.35;49.77;98484.59;4920039;29;20451;-74
2022/08/12 06:59:49;;;;;;;4.97;2.50;;;;;;;19.37;51.34;98480.66;4928099;29;20036;-74
2022/08/12 07:02:19;;;;;;;4.22;3.00;;;;;;;19.54;49.37;98483.75;4927705;29;20135;-74
2022/08/12 07:04:46;;;;;;;5.68;2.42;;;;;;;19.46;52.47;98478.59;4924804;29;20146;-74
2022/08/12 07:07:13;;;;;;;10.27;2.85;;;;;;;19.63;51.14;98487.81;4927212;29;20176;-73
2022/08/12 07:09:41;;;;;;;3.92;2.47;;;;;;;20.00;48.82;98482.75;4919208;29;20071;-74
2022/08/12 07:12:27;;;;;;;2.70;1.95;;;;;;;20.27;47.33;98483.44;4923623;29;20059;-74
2022/08/12 07:14:58;;;;;;;4.05;2.60;;;;;;;20.29;49.53;98484.06;4923949;29;20135;-74
2022/08/12 07:17:30;;;;;;;3.50;2.40;;;;;;;20.31;49.14;98489.22;4925187;29;20078;-74
2022/08/12 07:19:57;;;;;;;15.82;2.70;;;;;;;20.40;48.78;98490.59;4922388;29;20447;-73
2022/08/12 07:22:30;;;;;;;4.75;2.50;;;;;;;20.74;44.89;98488.56;4923290;29;20055;-74
2022/08/12 07:27:42;;;;;;;5.80;2.70;;;;;;;21.24;43.31;98488.53;4920879;29;20082;-74
2022/08/12 07:30:09;;;;;;;4.03;2.40;;;;;;;21.22;45.43;98485.22;4918954;29;20070;-73
2022/08/12 07:32:36;;;;;;;6.05;2.42;;;;;;;20.87;45.77;98485.75;4927803;29;20452;-74
2022/08/12 07:35:03;;;;;;;7.57;2.50;;;;;;;20.80;46.82;98483.13;4928315;29;20066;-74
2022/08/12 07:37:30;;;;;;;5.68;2.47;;;;;;;21.02;45.32;98480.88;4926478;29;20040;-73
2022/08/12 07:39:57;;;;;;;3.50;2.50;;;;;;;21.06;45.69;98481.25;4924313;29;20040;-73
2022/08/12 07:42:27;;;;;;;3.97;2.60;;;;;;;21.11;45.65;98475.22;4918630;29;20052;-73
2022/08/12 07:44:54;;;;;;;3.33;2.63;;;;;;;21.25;45.27;98474.06;4920591;29;20060;-73
2022/08/12 07:47:21;;;;;;;6.88;2.08;;;;;;;21.30;44.71;98478.75;4921536;29;20810;-73
2022/08/12 07:49:48;;;;;;;1.98;1.85;;;;;;;21.18;45.20;98476.78;4925232;29;20414;-73
2022/08/12 07:52:37;;;;;;;2.15;1.90;;;;;;;21.51;44.34;98474.84;4923171;29;20060;-73
2022/08/12 07:55:04;;;;;;;;;;;;;;;21.84;43.61;98474.47;4921809;29;20511;-73
2022/08/12 07:57:33;;;;;;;2.90;2.33;;;;;;;22.09;42.61;98477.88;4936263;28;19931;-72
2022/08/12 08:00:02;;;;;;;4.13;2.20;;;;;;;;;;4919618;29;20047;-72
2022/08/12 08:02:34;;;;;;;;;;;;;;;22.18;41.46;98472.16;4922312;29;20048;-72
2022/08/12 08:05:02;;;;;;;4.75;2.20;;;;;;;22.32;42.31;98466.38;4917986;29;19930;-73
2022/08/12 08:07:29;;;;;;;6.97;2.30;;;;;;;22.24;41.74;98461.31;4922998;29;20067;-73
2022/08/12 08:09:58;;;;;;;3.85;1.95;;;;;;;22.24;41.75;98464.00;4921603;29;20056;-73
2022/08/12 08:15:14;;;;;;;4.22;2.35;;;;;;;22.86;41.32;98461.00;4918248;29;20055;-72
2022/08/12 08:18:01;;;;;;;4.55;2.53;;;;;;;23.15;41.21;98455.78;4922261;29;20079;-72
2022/08/12 08:20:34;;;;;;;6.13;2.13;;;;;;;23.35;39.90;98455.38;4920757;29;20048;-73
2022/08/12 08:23:07;;;;;;;4.85;1.95;;;;;;;23.60;37.21;98442.44;4922871;29;20132;-73
2022/08/12 08:25:37;;;;;;;7.60;2.60;;;;;;;23.45;40.28;98442.13;4920349;29;20204;-72
2022/08/12 08:28:12;;;;;;;4.75;2.05;;;;;;;23.95;38.21;98446.94;4927110;29;20562;-73
2022/08/12 08:30:45;;;;;;;2.33;2.13;;;;;;;24.23;36.00;98446.13;4922447;29;20052;-73
2022/08/12 08:33:14;;;;;;;5.50;2.35;;;;;;;24.47;35.59;98452.25;4922519;29;20419;-73
2022/08/12 08:35:48;;;;;;;2.42;1.75;;;;;;;24.43;36.98;98455.66;4915972;29;20056;-74
2022/08/12 08:38:19;;;;;;;3.70;1.70;;;;;;;24.52;34.56;98456.94;4915697;29;20072;-73
2022/08/12 08:44:10;;;;;;;3.17;1.80;;;;;;;25.12;32.34;98439.22;4916894;29;20878;-72
2022/08/12 08:46:39;;;;;;;2.08;1.50;;;;;;;25.18;34.78;98443.69;4923260;29;20131;-72
2022/08/12 08:49:07;;;;;;;1.90;1.80;;;;;;;25.20;34.56;98446.97;4918775;29;20062;-72
2022/08/12 08:51:39;;;;;;;2.40;1.42;;;;;;;25.28;33.51;98448.44;4917295;29;20058;-72
2022/08/12 08:54:07;;;;;;;2.42;1.65;;;;;;;25.39;33.94;98442.09;4919042;29;20051;-72
2022/08/12 08:56:48;;;;;;;3.00;2.00;;;;;;;25.60;31.53;98435.84;4922910;29;20574;-73
2022/08/12 08:59:18;;;;;;;1.80;1.60;;;;;;;25.81;32.24;98436.09;4923355;29;20059;-72
2022/08/12 09:01:50;;;;;;;1.88;1.55;;;;;;;25.76;30.47;98433.34;4955502;28;20421;-72
2022/08/12 09:04:22;;;;;;;2.60;1.80;;;;;;;25.83;31.75;98434.78;4920329;29;20055;-72
2022/08/12 09:07:12;;;;;;;3.45;1.95;;;;;;;25.75;33.12;98437.09;4917371;29;20541;-73
2022/08/12 09:09:59;;;;;;;6.32;1.95;;;;;;;26.00;32.56;98428.47;4921772;29;20050;-73
2022/08/12 09:15:41;;;;;;;2.35;1.70;;;;;;;26.01;32.58;98428.25;4920738;29;20127;-73
2022/08/12 09:18:23;;;;;;;3.83;1.90;;;;;;;25.90;31.38;98444.63;4919007;29;20043;-73
2022/08/12 09:20:59;;;;;;;3.22;2.10;;;;;;;26.31;30.50;98426.91;4922933;29;20048;-73
2022/08/12 09:23:28;;;;;;;1.90;1.70;;;;;;;26.64;29.78;98423.16;4920923;29;20040;-73
2022/08/12 09:26:18;;;;;;;1.85;1.48;;;;;;;26.81;29.00;98422.22;4918826;29;20044;-73
2022/08/12 09:28:58;;;;;;;3.22;2.33;;;;;;;26.43;29.65;98415.88;4916057;29;20068;-72
2022/08/12 09:31:29;;;;;;;1.75;1.65;;;;;;;26.46;29.64;98418.91;4908534;29;20142;-73
2022/08/12 09:34:17;;;;;;;3.03;2.13;;;;;;;26.93;28.58;98425.53;4923690;29;20058;-72
2022/08/12 09:37:00;;;;;;;3.42;1.70;;;;;;;26.78;29.79;98420.00;4918128;29;20400;-73
2022/08/12 09:39:44;;;;;;;1.60;1.38;;;;;;;26.71;29.39;98418.31;4917328;29;20515;-73
2022/08/12 09:45:36;;;;;;;2.10;1.90;;;;;;;26.36;30.30;98407.16;4921247;29;20060;-73
2022/08/12 09:48:23;;;;;;;2.05;1.40;;;;;;;26.59;29.97;98406.81;4922492;29;20079;-72
2022/08/12 09:50:50;;;;;;;3.30;2.00;;;;;;;26.94;29.08;98402.75;4923975;29;20403;-72
2022/08/12 09:53:23;;;;;;;1.77;1.48;;;;;;;26.92;29.22;98400.28;4928013;29;20043;-72
2022/08/12 09:56:02;;;;;;;3.47;1.95;;;;;;;26.25;31.88;98393.50;4918509;29;20103;-72
2022/08/12 09:58:50;;;;;;;6.63;1.77;;;;;;;26.49;30.58;98398.59;4921928;29;20518;-72
2022/08/12 10:01:27;;;;;;;4.28;2.00;;;;;;;26.57;28.89;98400.00;4917699;29;20102;-72
2022/08/12 10:04:14;;;;;;;2.83;1.55;;;;;;;26.49;28.10;98388.56;4923749;29;20392;-72
2022/08/12 10:06:45;;;;;;;4.28;1.63;;;;;;;26.52;29.99;98381.81;4924911;29;20067;-72
2022/08/12 10:09:21;;;;;;;3.10;1.27;;;;;;;26.82;28.57;98388.56;4918715;29;20050;-72
2022/08/12 10:15:00;;;;;;;3.78;1.92;;;;;;;26.67;28.78;98371.09;4919350;29;20044;-72
2022/08/12 10:17:27;;;;;;;3.20;1.38;;;;;;;26.51;28.79;98363.84;4913619;29;20051;-72
2022/08/12 10:19:53;;;;;;;1.90;1.52;;;;;;;26.48;30.54;98364.38;4924995;29;20043;-72
2022/08/12 10:22:25;;;;;;;3.10;1.67;;;;;;;26.74;27.60;98370.84;4919128;29;20052;-71
2022/08/12 10:30:59;;;;;;;3.75;1.65;;;;;;;26.48;29.82;98365.19;4914588;29;20131;-71
2022/08/12 10:33:32;;;;;;;2.30;1.52;;;;;;;26.58;27.44;98361.78;4914451;29;20048;-71
2022/08/12 10:36:00;;;;;;;2.50;1.38;;;;;;;26.58;27.36;98356.34;4919967;29;20844;-72
2022/08/12 10:38:28;;;;;;;3.25;1.38;;;;;;;26.23;28.80;98354.16;4922285;28;20060;-71
2022/08/12 10:44:12;;;;;;;2.67;1.23;;;;;;;26.17;28.16;98345.16;4922501;29;20060;-72
2022/08/12 10:46:45;;;;;;;2.72;1.50;;;;;;;26.22;28.28;98345.19;4917430;29;20410;-72
2022/08/12 10:49:16;;;;;;;1.40;1.20;;;;;;;26.10;29.90;98347.25;4919332;29;20083;-71
2022/08/12 10:52:04;;;;;;;1.90;1.70;;;;;;;26.16;27.97;98351.66;4918839;29;20110;-72
2022/08/12 10:54:54;;;;;;;3.17;1.15;;;;;;;26.33;28.26;98342.56;4919601;29;20395;-71
2022/08/12 10:57:26;;;;;;;2.28;1.48;;;;;;;26.03;30.34;98341.22;4927186;29;20494;-71
2022/08/12 11:00:13;;;;;;;1.80;1.38;;;;;;;26.23;29.28;98354.16;4918960;29;20638;-71
2022/08/12 11:03:00;;;;;;;5.22;1.40;;;;;;;26.57;27.38;98343.88;4922234;29;20039;-72
2022/08/12 11:05:47;;;;;;;1.40;1.30;;;;;;;26.61;26.93;98330.59;4917881;29;20071;-71
2022/08/12 11:08:37;;;;;;;4.53;1.50;;;;;;;26.62;27.56;98324.94;4915496;29;20056;-71
2022/08/12 11:11:16;;;;;;;2.53;1.20;;;;;;;26.44;28.07;98333.44;4923569;29;20167;-72
2022/08/12 11:13:45;;;;;;;5.47;1.27;;;;;;;26.02;29.61;98320.63;4923128;29;20747;-71
2022/08/12 11:16:17;;;;;;;2.60;1.80;;;;;;;25.97;29.05;98326.00;4923377;29;20582;-71
2022/08/12 11:18:49;;;;;;;1.77;1.60;;;;;;;25.76;30.13;98316.81;4922870;29;20299;-71
2022/08/12 11:21:22;;;;;;;2.28;1.60;;;;;;;25.63;30.31;98316.13;4927797;29;20103;-72
2022/08/12 11:24:09;;;;;;;1.77;1.52;;;;;;;26.04;29.96;98322.00;4918083;29;20056;-71
2022/08/12 11:26:57;;;;;;;2.92;1.80;;;;;;;26.04;30.10;98326.56;4925578;29;20066;-72
2022/08/12 11:29:26;;;;;;;1.45;1.35;;;;;;;25.79;29.99;98319.81;4925521;29;20048;-72
2022/08/12 11:32:12;;;;;;;2.58;1.25;;;;;;;26.11;29.43;98310.13;4925201;29;20055;-71
2022/08/12 11:34:39;;;;;;;1.60;1.25;;;;;;;26.30;29.14;98313.25;4921021;29;20044;-71
2022/08/12 11:37:20;;;;;;;2.70;1.50;;;;;;;26.25;29.13;98306.72;4915900;29;20546;-71
2022/08/12 11:39:53;;;;;;;2.00;1.48;;;;;;;26.55;27.34;98305.34;4919217;29;20052;-71
2022/08/12 11:42:35;;;;;;;2.72;1.70;;;;;;;26.59;29.69;98313.75;4918227;29;22404;-71
2022/08/12 11:45:11;;;;;;;4.15;2.00;;;;;;;26.58;28.70;98304.81;4918455;29;20051;-71
2022/08/12 11:47:42;;;;;;;4.53;1.70;;;;;;;26.38;30.00;98301.91;4923370;29;20043;-71
2022/08/12 11:50:09;;;;;;;2.13;1.42;;;;;;;27.00;27.16;98298.53;4924153;29;20063;-72
2022/08/12 11:52:44;;;;;;;2.00;1.60;;;;;;;27.16;28.75;98296.69;4918700;29;20048;-71
2022/08/12 11:55:24;;;;;;;3.30;1.52;;;;;;;27.32;27.34;98290.25;4922004;29;22260;-71
2022/08/12 11:57:52;;;;;;;2.05;1.35;;;;;;;27.17;28.16;98290.19;4920173;29;20650;-71
2022/08/12 12:00:39;;;;;;;2.67;1.25;;;;;;;27.16;27.15;98288.56;4923448;29;20051;-71
2022/08/12 12:03:26;;;;;;;3.13;1.67;;;;;;;26.96;29.79;98286.56;4924946;29;20055;-71
2022/08/12 12:06:16;;;;;;;2.15;1.08;;;;;;;26.49;28.17;98290.88;4920082;29;20403;-71
2022/08/12 12:08:44;;;;;;;4.80;1.88;;;;;;;26.41;28.54;98290.53;4920718;29;20503;-71
2022/08/12 12:11:20;;;;;;;1.55;1.45;;;;;;;26.68;28.05;98283.16;4917294;29;20464;-71
2022/08/12 12:13:47;;;;;;;4.20;1.55;;;;;;;26.67;30.06;98286.97;4917474;29;20050;-71
2022/08/12 12:16:33;;;;;;;2.65;1.30;;;;;;;27.11;29.94;98280.38;4923436;29;20459;-71
2022/08/12 12:19:05;;;;;;;2.22;1.30;;;;;;;27.84;26.95;98276.81;4929460;29;20039;-71
2022/08/12 12:21:34;;;;;;;6.93;2.15;;;;;;;27.03;29.21;98275.47;4922639;29;20059;-71
2022/08/12 12:24:18;;;;;;;2.08;1.83;;;;;;;27.42;29.17;98275.09;4923542;29;20391;-71
2022/08/12 12:26:49;;;;;;;4.28;1.45;;;;;;;27.50;28.67;98277.28;4915106;29;20056;-69
2022/08/12 12:29:29;;;;;;;3.80;1.63;;;;;;;28.06;27.60;98282.00;4924537;29;22361;-69
2022/08/12 12:32:16;;;;;;;5.53;1.30;;;;;;;28.51;26.06;98269.47;4921204;29;20078;-69
2022/08/12 12:34:44;;;;;;;1.70;1.48;;;;;;;28.45;26.66;98274.13;4927728;29;20055;-69
2022/08/12 12:37:30;;;;;;;3.33;2.00;;;;;;;28.11;27.79;98277.38;4921656;29;20052;-69
2022/08/12 12:40:17;;;;;;;1.55;1.45;;;;;;;27.95;28.29;98268.41;4923800;29;20062;-69
2022/08/12 12:42:44;;;;;;;3.17;1.63;;;;;;;28.23;27.26;98263.50;4920248;29;20048;-69
2022/08/12 12:45:29;;;;;;;3.65;1.30;;;;;;;27.93;26.46;98272.47;4920018;29;20048;-69
2022/08/12 12:48:01;;;;;;;4.25;1.42;;;;;;;27.65;27.15;98276.47;4923286;29;20044;-69
2022/08/12 12:53:39;;;;;;;2.47;1.70;;;;;;;27.10;28.67;98263.28;4922745;29;20051;-70
2022/08/12 12:56:26;;;;;;;1.38;1.27;;;;;;;27.42;26.86;98258.78;4924329;29;20048;-70
2022/08/12 12:59:01;;;;;;;1.52;1.25;;;;;;;27.33;28.34;98262.03;4917508;29;20127;-70
2022/08/12 13:01:29;;;;;;;1.80;1.40;;;;;;;27.33;27.28;98261.19;4919368;29;20048;-70
2022/08/12 13:03:59;;;;;;;4.93;1.88;;;;;;;27.14;28.07;98256.22;4919529;29;20122;-70
2022/08/12 13:06:29;;;;;;;2.13;1.40;;;;;;;27.05;27.12;98260.53;4923022;29;20078;-70
2022/08/12 13:09:00;;;;;;;3.65;1.80;;;;;;;27.18;28.05;98261.97;4923343;29;20072;-70
2022/08/12 13:11:32;;;;;;;2.50;1.80;;;;;;;27.60;25.88;98255.56;4923771;29;20055;-70
2022/08/12 13:14:08;;;;;;;1.65;1.30;;;;;;;27.95;27.34;98252.06;4926700;29;20128;-70
2022/08/12 13:16:54;;;;;;;1.95;1.30;;;;;;;28.58;25.54;98253.69;4922529;29;20043;-70
2022/08/12 13:19:22;;;;;;;2.60;1.40;;;;;;;28.74;25.51;98244.38;4923178;28;20044;-70
2022/08/12 13:22:19;;;;;;;5.57;2.35;;;;;;;28.63;25.97;98231.91;4915389;29;20048;-70
2022/08/12 13:24:53;;;;;;;2.28;1.50;;;;;;;28.09;26.35;98221.63;4928709;29;20126;-71
2022/08/12 13:27:28;;;;;;;1.23;1.15;;;;;;;28.78;25.13;98240.00;4922897;29;20051;-70
2022/08/12 13:30:04;;;;;;;1.55;1.30;;;;;;;28.94;23.89;98229.03;4926253;29;20106;-70
2022/08/12 13:32:37;;;;;;;1.85;1.58;;;;;;;28.75;24.15;98239.72;4918046;29;20134;-71
2022/08/12 13:35:06;;;;;;;1.67;1.20;;;;;;;28.07;25.03;98237.38;4925000;29;20054;-70
2022/08/12 13:37:54;;;;;;;2.50;1.30;;;;;;;27.35;25.76;98226.44;4919599;29;20052;-70
2022/08/12 13:40:23;;;;;;;2.15;1.30;;;;;;;27.15;26.92;98230.72;4914043;29;20108;-70
2022/08/12 13:42:57;;;;;;;2.50;1.50;;;;;;;27.31;26.32;98238.94;4926805;29;20064;-70
2022/08/12 13:45:25;;;;;;;1.55;1.33;;;;;;;27.76;25.16;98234.66;4924419;29;20044;-70
2022/08/12 13:47:57;;;;;;;2.55;1.25;;;;;;;28.05;25.71;98226.78;4926594;29;20118;-70
2022/08/12 13:50:35;;;;;;;3.10;1.45;;;;;;;28.01;26.64;98223.78;4923197;29;20051;-70
2022/08/12 13:53:04;;;;;;;2.63;1.30;;;;;;;28.24;25.75;98233.28;4924648;29;20040;-71
2022/08/12 13:55:50;;;;;;;1.55;1.30;;;;;;;28.10;25.99;98224.06;4918012;29;20051;-70
2022/08/12 13:58:28;;;;;;;1.77;1.38;;;;;;;27.95;25.64;98233.03;4924877;29;20075;-70
2022/08/12 14:00:56;;;;;;;1.38;1.17;;;;;;;27.95;26.22;98230.31;4928128;29;20059;-70